Time;durP1;ratioP1;P1;durP2;ratioP2;P2;SDS_P1;SDS_P2;PMS_P1;PMS_P2;Temp;Humidity;BMP_temperature;BMP_pressure;BME280_temperature;BME280_humidity;BME280_pressure;Samples;Min_cycle;Max_cycle;Signal;HPM_P1;HPM_P2
2022/06/13 00:00:58;;;;;;;6.95;2.97;;;17.80;91.20;;;14.14;89.59;100996.81;5091649;28;20110;-83
2022/06/13 00:03:27;;;;;;;11.52;3.50;;;17.70;91.30;;;14.13;89.96;100985.03;5092006;28;20046;-83
2022/06/13 00:05:54;;;;;;;10.30;2.90;;;17.70;91.50;;;14.10;89.60;100990.88;5091113;28;20047;-83
2022/06/13 00:08:21;;;;;;;8.85;3.00;;;17.70;91.30;;;14.11;89.45;100987.13;5092817;28;20047;-83
2022/06/13 00:10:48;;;;;;;16.40;4.10;;;17.70;91.20;;;14.10;89.74;100981.84;5099448;28;20570;-83
2022/06/13 00:13:15;;;;;;;9.52;3.33;;;17.60;91.30;;;14.10;89.63;100974.47;5091675;28;20047;-82
2022/06/13 00:15:43;;;;;;;10.52;3.33;;;17.60;91.60;;;14.08;90.32;100974.66;5091061;28;20040;-83
2022/06/13 00:18:10;;;;;;;7.72;2.97;;;17.60;91.90;;;14.03;91.59;100968.06;5091597;28;20048;-82
2022/06/13 00:20:38;;;;;;;8.63;3.30;;;17.60;92.50;;;14.01;91.60;100961.97;5091174;28;20044;-83
2022/06/13 00:23:06;;;;;;;7.32;3.22;;;17.50;92.50;;;13.94;92.23;100958.34;5091325;28;20036;-83
2022/06/13 00:25:33;;;;;;;8.27;3.00;;;17.50;92.60;;;13.83;93.18;100959.69;5091059;28;20066;-83
2022/06/13 00:28:00;;;;;;;7.80;3.05;;;17.50;93.20;;;13.80;94.01;100963.69;5091438;28;20122;-83
2022/06/13 00:30:27;;;;;;;12.25;3.53;;;17.50;93.50;;;13.77;94.13;100964.06;5087811;28;20040;-82
2022/06/13 00:32:56;;;;;;;11.90;3.30;;;17.40;93.50;;;13.73;94.60;100964.63;5072867;28;20517;-82
2022/06/13 00:35:23;;;;;;;9.55;3.22;;;17.40;93.70;;;13.72;95.05;100963.78;5090822;28;20439;-82
2022/06/13 00:37:51;;;;;;;15.30;3.40;;;17.30;93.80;;;13.69;95.24;100966.94;5091307;28;20493;-82
2022/06/13 00:40:19;;;;;;;9.63;3.50;;;17.40;94.00;;;13.62;95.54;100964.09;5090773;28;20040;-82
2022/06/13 00:42:47;;;;;;;11.05;3.80;;;17.30;94.30;;;13.59;96.25;100966.38;5091254;28;20139;-82
2022/06/13 00:45:22;;;;;;;11.15;3.67;;;17.20;94.40;;;13.53;96.43;100962.53;5076802;28;20131;-82
2022/06/13 00:47:53;;;;;;;9.48;3.30;;;17.20;94.50;;;13.46;97.13;100961.59;5090514;28;20468;-83
2022/06/13 00:50:26;;;;;;;8.77;3.22;;;17.20;94.80;;;13.35;97.92;100968.44;5089852;28;20039;-82
2022/06/13 00:53:00;;;;;;;10.05;3.55;;;17.10;94.90;;;13.29;98.18;100961.81;5087790;28;20043;-82
2022/06/13 00:55:37;;;;;;;9.40;3.50;;;17.00;95.00;;;13.24;98.71;100958.78;5085100;28;20047;-83
2022/06/13 00:58:06;;;;;;;12.93;3.67;;;17.00;95.20;;;13.24;99.00;100950.59;5090780;28;20055;-82
2022/06/13 01:00:35;;;;;;;12.48;3.67;;;17.00;95.40;;;13.23;99.29;100951.66;5090654;28;20044;-83
2022/06/13 01:03:04;;;;;;;12.02;3.72;;;17.00;95.60;;;13.17;99.47;100946.91;5090568;28;20056;-82
2022/06/13 01:05:37;;;;;;;10.23;3.38;;;17.00;95.60;;;13.13;99.69;100948.34;5090342;28;20044;-83
2022/06/13 01:08:10;;;;;;;10.50;3.53;;;16.90;95.70;;;13.10;100.00;100951.47;5090508;28;20055;-82
2022/06/13 01:13:44;;;;;;;7.38;3.40;;;16.80;95.90;;;13.00;100.00;100950.91;5090655;28;20078;-82
2022/06/13 01:16:27;;;;;;;8.63;3.72;;;16.80;95.90;;;12.91;100.00;100953.75;5089954;28;20527;-82
2022/06/13 01:19:22;;;;;;;10.45;3.20;;;16.80;96.10;;;12.87;100.00;100949.69;5090542;28;20052;-82
2022/06/13 01:22:05;;;;;;;10.30;3.33;;;16.80;96.30;;;12.86;100.00;100949.88;5076090;28;20044;-82
2022/06/13 01:25:07;;;;;;;9.27;3.30;;;16.70;96.60;;;12.81;100.00;100953.19;5089821;28;20058;-83
2022/06/13 01:28:30;;;;;;;10.20;3.28;;;16.70;96.70;;;12.80;100.00;100950.66;5090324;28;20128;-82
2022/06/13 01:31:14;;;;;;;9.02;4.32;;;16.60;96.70;;;12.80;100.00;100946.03;5085793;28;20549;-82
2022/06/13 01:33:56;;;;;;;10.82;3.33;;;16.60;96.90;;;12.77;100.00;100940.94;5090249;28;20046;-82
2022/06/13 01:36:42;;;;;;;10.43;4.00;;;16.60;97.00;;;12.81;100.00;100947.75;5089870;28;20047;-82
2022/06/13 01:39:28;;;;;;;15.85;3.33;;;16.60;97.30;;;12.74;100.00;100938.59;5090199;28;20036;-82
2022/06/13 01:42:11;;;;;;;9.23;3.63;;;16.50;97.40;;;12.75;100.00;100945.72;5089941;28;20528;-82
2022/06/13 01:44:54;;;;;;;10.35;4.25;;;16.50;97.90;;;12.76;100.00;100944.72;5089566;28;20044;-82
2022/06/13 01:47:33;;;;;;;9.85;3.60;;;16.40;98.00;;;12.77;100.00;100951.00;5090288;28;20044;-82
2022/06/13 01:50:10;;;;;;;10.50;3.78;;;16.40;98.30;;;12.83;100.00;100959.31;5089599;28;20044;-82
2022/06/13 01:52:48;;;;;;;10.50;3.63;;;16.40;98.70;;;12.88;100.00;100956.84;5090131;28;20072;-82
2022/06/13 01:55:25;;;;;;;9.13;3.70;;;16.50;99.10;;;12.88;100.00;100956.84;5088881;28;20405;-82
2022/06/13 01:58:01;;;;;;;10.07;3.95;;;16.50;99.40;;;12.91;100.00;100953.75;5088880;28;20585;-82
2022/06/13 02:00:32;;;;;;;11.75;3.90;;;16.50;99.80;;;12.96;100.00;100955.06;5091961;28;20119;-82
2022/06/13 02:03:14;;;;;;;8.57;3.50;;;16.50;99.80;;;13.02;100.00;100960.63;5094353;28;20039;-82
2022/06/13 02:05:46;;;;;;;13.55;4.05;;;16.50;99.90;;;13.06;100.00;100955.59;5096958;28;20044;-82
2022/06/13 02:08:19;;;;;;;10.43;4.00;;;16.50;99.90;;;13.06;100.00;100952.88;5114651;28;20062;-82
2022/06/13 02:10:53;;;;;;;9.90;3.70;;;16.50;99.90;;;13.07;100.00;100965.50;5098952;28;20042;-82
2022/06/13 02:13:28;;;;;;;7.20;3.13;;;16.50;99.90;;;13.04;100.00;100957.69;5093914;28;20111;-82
2022/06/13 02:16:01;;;;;;;10.93;3.88;;;16.50;99.90;;;13.04;100.00;100949.47;5093660;28;20094;-83
2022/06/13 02:18:33;;;;;;;14.05;4.03;;;16.50;99.90;;;13.02;100.00;100952.44;5093682;28;20051;-83
2022/06/13 02:21:09;;;;;;;9.60;3.78;;;16.50;99.90;;;12.97;100.00;100951.31;5094096;28;20481;-83
2022/06/13 02:23:43;;;;;;;8.93;3.63;;;16.50;99.90;;;12.89;100.00;100958.56;5093421;28;20038;-82
2022/06/13 02:26:16;;;;;;;11.60;3.80;;;16.50;99.90;;;12.85;100.00;100953.63;5093616;28;20044;-82
2022/06/13 02:28:49;;;;;;;9.18;3.70;;;16.50;99.90;;;12.81;100.00;100950.47;5093693;28;20090;-82
2022/06/13 02:31:21;;;;;;;10.55;3.97;;;16.40;99.90;;;12.85;100.00;100949.03;5093257;28;20040;-82
2022/06/13 02:33:56;;;;;;;10.82;3.67;;;16.40;99.90;;;12.82;100.00;100943.94;5093687;28;20052;-82
2022/06/13 02:36:32;;;;;;;10.15;3.90;;;16.40;99.90;;;12.81;100.00;100949.59;5093074;28;20048;-82
2022/06/13 02:39:06;;;;;;;9.77;3.88;;;16.40;99.90;;;12.81;100.00;100958.66;5093584;28;20665;-82
2022/06/13 02:41:41;;;;;;;11.13;3.58;;;16.40;99.90;;;12.81;100.00;100947.75;5093182;28;20044;-82
2022/06/13 02:44:13;;;;;;;9.00;3.55;;;16.30;99.90;;;12.89;100.00;100933.13;5073082;28;20045;-82
2022/06/13 02:46:46;;;;;;;11.82;3.95;;;16.30;99.90;;;12.96;100.00;100933.19;5088809;28;20115;-83
2022/06/13 02:49:20;;;;;;;12.43;3.67;;;16.30;99.90;;;12.97;100.00;100929.44;5194081;22;20020;-80
2022/06/13 02:51:59;;;;;;;11.57;3.90;;;16.30;99.90;;;12.90;100.00;100935.66;5072591;28;20047;-80
2022/06/13 02:54:36;;;;;;;7.97;3.50;;;16.30;99.90;;;12.91;100.00;100940.09;5057844;28;20063;-80
2022/06/13 02:57:24;;;;;;;7.78;3.63;;;16.30;99.90;;;12.90;100.00;100943.00;5073120;28;20052;-80
2022/06/13 03:00:07;;;;;;;11.00;3.40;;;16.30;99.90;;;12.87;100.00;100941.50;5072503;28;20112;-80
2022/06/13 03:02:48;;;;;;;11.02;3.58;;;16.30;99.90;;;12.84;100.00;100936.41;5072470;28;20050;-80
2022/06/13 03:05:57;;;;;;;10.10;3.80;;;16.30;99.90;;;12.81;100.00;100947.75;5072268;28;20036;-80
2022/06/13 03:08:48;;;;;;;8.77;3.83;;;16.30;99.90;;;12.84;100.00;100946.50;5033298;28;20139;-80
2022/06/13 03:12:00;;;;;;;8.68;3.45;;;16.30;99.90;;;12.88;100.00;100937.72;5071880;28;20028;-80
2022/06/13 03:14:47;;;;;;;12.73;3.85;;;16.30;99.90;;;12.99;100.00;100932.84;5052423;28;20055;-80
2022/06/13 03:17:33;;;;;;;9.68;3.50;;;16.30;99.90;;;13.02;100.00;100929.69;5064555;28;20047;-80
2022/06/13 03:20:10;;;;;;;10.63;4.28;;;16.30;99.90;;;13.04;100.00;100946.75;5054084;28;20414;-80
2022/06/13 03:22:46;;;;;;;9.43;3.67;;;16.30;99.90;;;13.05;100.00;100952.03;5072261;28;20044;-80
2022/06/13 03:25:21;;;;;;;9.20;3.65;;;16.30;99.90;;;13.08;100.00;100954.41;5071986;28;20044;-80
2022/06/13 03:27:55;;;;;;;8.70;3.97;;;16.30;99.90;;;13.11;100.00;100951.25;5072478;28;20070;-80
2022/06/13 03:30:27;;;;;;;10.77;4.07;;;16.30;99.90;;;13.16;100.00;100949.88;5072096;28;20032;-80
2022/06/13 03:35:46;;;;;;;11.40;3.95;;;16.30;99.90;;;13.23;100.00;100950.78;5054223;28;20090;-81
2022/06/13 03:38:21;;;;;;;10.98;3.95;;;16.40;99.90;;;13.28;100.00;100940.13;5071895;28;20153;-80
2022/06/13 03:40:54;;;;;;;12.68;3.85;;;16.40;99.90;;;13.28;100.00;100938.22;5072087;28;20039;-80
2022/06/13 03:43:28;;;;;;;11.15;3.58;;;16.40;99.90;;;13.32;100.00;100940.63;5071721;28;20041;-80
2022/06/13 03:46:02;;;;;;;9.80;3.28;;;16.40;99.90;;;13.35;100.00;100930.16;5071863;28;20037;-80
2022/06/13 03:48:40;;;;;;;12.55;4.43;;;16.40;99.90;;;13.39;100.00;100923.25;5071782;28;20044;-80
2022/06/13 03:51:15;;;;;;;15.65;3.92;;;16.40;99.90;;;13.40;100.00;100935.03;5070483;28;20059;-80
2022/06/13 03:53:50;;;;;;;8.90;3.75;;;16.50;99.90;;;13.39;100.00;100944.28;5061592;28;20457;-80
2022/06/13 03:56:23;;;;;;;11.75;4.07;;;16.50;99.90;;;13.41;100.00;100934.00;5052825;28;20055;-80
2022/06/13 03:58:56;;;;;;;12.25;3.72;;;16.50;99.90;;;13.45;100.00;100938.03;5064987;28;20422;-80
2022/06/13 04:01:29;;;;;;;10.90;3.88;;;16.50;99.90;;;13.42;100.00;100938.41;5068446;28;20393;-80
2022/06/13 04:03:57;;;;;;;8.63;4.00;;;16.50;99.90;;;13.39;100.00;100928.72;5069412;28;20048;-80
2022/06/13 04:06:36;;;;;;;9.68;3.97;;;16.50;99.90;;;13.48;100.00;100933.03;5071371;28;20055;-80
2022/06/13 04:09:09;;;;;;;11.13;3.88;;;16.50;99.90;;;13.53;100.00;100929.72;5051814;28;20063;-80
2022/06/13 04:12:00;;;;;;;12.10;3.92;;;16.50;99.90;;;13.56;100.00;100940.28;5051520;28;20486;-80
2022/06/13 04:15:07;;;;;;;10.05;4.72;;;16.50;99.90;;;13.57;100.00;100933.75;5071048;28;20561;-80
2022/06/13 04:17:47;;;;;;;14.60;5.05;;;16.60;99.90;;;13.59;100.00;100933.56;5068738;28;20059;-80
2022/06/13 04:20:27;;;;;;;11.73;4.20;;;16.60;99.90;;;13.62;100.00;100934.03;5069057;28;20406;-81
2022/06/13 04:23:01;;;;;;;13.32;4.38;;;16.60;99.90;;;13.65;100.00;100932.78;5070508;28;20729;-83
2022/06/13 04:25:42;;;;;;;9.88;4.47;;;16.60;99.90;;;13.69;100.00;100926.72;5070561;28;20119;-83
2022/06/13 04:28:25;;;;;;;16.70;5.00;;;16.70;99.90;;;13.73;100.00;100923.59;5071171;28;20140;-83
2022/06/13 04:30:55;;;;;;;11.00;4.72;;;16.60;99.90;;;13.76;100.00;100929.53;5057282;28;20303;-83
2022/06/13 04:33:29;;;;;;;16.48;5.10;;;16.70;99.90;;;13.83;100.00;100929.59;5070891;28;20515;-83
2022/06/13 04:35:57;;;;;;;14.50;4.60;;;16.70;99.90;;;13.89;100.00;100928.81;5068047;28;20464;-80
2022/06/13 04:38:26;;;;;;;14.10;4.90;;;16.70;99.90;;;13.92;100.00;100930.28;5071044;28;20048;-79
2022/06/13 04:40:59;;;;;;;14.10;4.70;;;16.70;99.90;;;13.88;100.00;100929.88;5051070;28;20047;-79
2022/06/13 04:43:33;;;;;;;10.82;4.97;;;16.70;99.90;;;13.91;100.00;100925.88;5050786;28;20494;-79
2022/06/13 04:46:08;;;;;;;11.13;4.55;;;16.80;99.90;;;13.95;100.00;100932.66;5049432;28;20685;-79
2022/06/13 04:48:38;;;;;;;14.23;4.78;;;16.80;99.90;;;13.97;100.00;100938.78;5062578;28;20080;-80
2022/06/13 04:51:12;;;;;;;14.20;5.40;;;16.80;99.90;;;13.94;100.00;100937.28;5062859;28;20131;-80
2022/06/13 04:53:51;;;;;;;13.00;4.90;;;16.80;99.90;;;13.87;100.00;100947.31;5060020;28;20746;-80
2022/06/13 04:56:21;;;;;;;15.30;4.95;;;16.80;99.90;;;13.93;100.00;100954.72;5069083;28;20046;-80
2022/06/13 04:58:50;;;;;;;14.65;4.85;;;16.80;99.90;;;13.91;100.00;100953.25;5070582;28;20045;-80
2022/06/13 05:01:24;;;;;;;11.73;4.60;;;16.80;99.90;;;13.88;100.00;100965.44;5070039;28;20047;-80
2022/06/13 05:03:52;;;;;;;17.90;5.13;;;16.80;99.90;;;13.92;100.00;100952.19;5070654;28;20068;-80
2022/06/13 05:06:28;;;;;;;18.77;5.30;;;16.80;99.90;;;13.98;100.00;100963.22;5051407;28;20045;-80
2022/06/13 05:09:01;;;;;;;12.95;5.15;;;16.80;99.90;;;13.94;100.00;100964.66;5070213;28;20047;-78
2022/06/13 05:11:36;;;;;;;13.70;4.88;;;16.80;99.90;;;14.05;100.00;100960.50;5070297;28;20040;-78
2022/06/13 05:14:09;;;;;;;13.07;4.55;;;16.80;99.90;;;14.11;100.00;100970.69;5068755;28;20391;-79
2022/06/13 05:16:55;;;;;;;14.00;5.00;;;16.80;99.90;;;14.20;100.00;100968.66;5070050;28;20041;-79
2022/06/13 05:19:50;;;;;;;14.60;5.43;;;16.80;99.90;;;14.30;100.00;100974.66;5070135;28;20115;-79
2022/06/13 05:22:45;;;;;;;12.95;5.30;;;16.90;99.90;;;14.34;100.00;100981.44;5070134;28;20048;-78
2022/06/13 05:25:43;;;;;;;13.48;5.47;;;16.90;99.90;;;14.40;100.00;100986.09;5069711;28;20048;-78
2022/06/13 05:28:15;;;;;;;14.93;5.07;;;16.90;99.90;;;14.36;100.00;100993.03;5070128;28;20033;-79
2022/06/13 05:30:44;;;;;;;14.00;4.65;;;16.90;99.90;;;14.32;100.00;100994.47;5069955;28;20033;-77
2022/06/13 05:33:13;;;;;;;15.52;5.60;;;16.90;99.90;;;14.35;100.00;100993.22;5068069;28;20044;-77
2022/06/13 05:35:43;;;;;;;16.17;5.68;;;16.90;99.90;;;14.40;100.00;100994.31;5051069;28;20670;-78
2022/06/13 05:38:15;;;;;;;14.27;5.45;;;17.00;99.90;;;14.39;100.00;100992.63;5069336;28;20143;-77
2022/06/13 05:40:43;;;;;;;14.18;5.50;;;17.00;99.90;;;14.33;100.00;100995.31;5030812;28;20045;-77
2022/06/13 05:43:13;;;;;;;16.83;5.88;;;17.00;99.90;;;14.21;100.00;100997.75;5054649;28;20075;-79
2022/06/13 05:45:42;;;;;;;20.90;5.90;;;17.00;99.90;;;14.12;100.00;101007.97;5068890;28;20417;-78
2022/06/13 05:48:14;;;;;;;14.82;5.72;;;17.00;99.90;;;14.05;100.00;101001.56;5067857;28;20111;-79
2022/06/13 05:50:43;;;;;;;18.58;6.50;;;17.00;99.90;;;14.07;100.00;100996.78;5068983;28;20037;-79
2022/06/13 05:53:12;;;;;;;16.83;5.45;;;16.90;99.90;;;13.98;100.00;101003.41;5065558;28;20064;-79
2022/06/13 05:55:41;;;;;;;13.32;5.47;;;16.90;99.90;;;13.98;100.00;101008.88;5054217;28;20135;-78
2022/06/13 05:58:12;;;;;;;16.65;5.57;;;16.90;99.90;;;13.98;100.00;101022.56;5060045;28;20134;-89
2022/06/13 06:00:46;;;;;;;14.05;6.05;;;16.90;99.90;;;13.96;100.00;101016.44;5051283;28;20094;-80
2022/06/13 06:03:13;;;;;;;10.38;5.03;;;16.90;99.90;;;13.90;100.00;101012.59;5062791;28;20115;-79
2022/06/13 06:05:41;;;;;;;12.75;5.75;;;16.90;99.90;;;13.93;100.00;101023.13;5069324;28;20773;-79
2022/06/13 06:08:17;;;;;;;14.13;5.55;;;16.90;99.90;;;13.99;100.00;101022.38;5069372;28;20124;-80
2022/06/13 06:10:46;;;;;;;14.38;5.22;;;16.90;99.90;;;14.04;100.00;101022.63;5069589;28;20409;-80
2022/06/13 06:13:15;;;;;;;12.27;5.13;;;16.80;99.90;;;14.10;100.00;101033.84;5061588;28;20033;-80
2022/06/13 06:15:44;;;;;;;13.77;5.38;;;16.80;99.90;;;14.19;100.00;101021.72;5051154;28;20048;-80
2022/06/13 06:18:12;;;;;;;12.60;5.13;;;16.80;99.90;;;14.24;100.00;101027.44;5069863;28;20414;-80
2022/06/13 06:20:39;;;;;;;16.92;4.95;;;16.90;99.90;;;14.36;100.00;101023.16;5069437;28;20067;-80
2022/06/13 06:23:07;;;;;;;9.68;4.82;;;16.90;99.90;;;14.60;100.00;101019.16;5069698;28;20036;-80
2022/06/13 06:25:35;;;;;;;14.88;4.78;;;17.00;99.90;;;14.96;100.00;101022.78;5068076;28;20056;-80
2022/06/13 06:28:03;;;;;;;11.23;4.97;;;16.90;99.90;;;18.14;100.00;101019.41;5069021;28;20068;-80
2022/06/13 06:30:32;;;;;;;16.00;5.10;;;17.10;99.90;;;21.22;85.73;101019.91;5064394;28;20072;-80
2022/06/13 06:33:00;;;;;;;11.95;5.28;;;17.30;99.90;;;21.58;78.77;101013.22;5062215;28;20051;-79
2022/06/13 06:35:30;;;;;;;10.55;4.32;;;17.50;99.90;;;19.98;81.74;101018.81;5066833;28;20044;-80
2022/06/13 06:37:59;;;;;;;11.43;4.90;;;17.60;99.90;;;19.04;87.10;101021.88;5067451;28;20044;-81
2022/06/13 06:40:29;;;;;;;10.25;4.40;;;17.80;99.90;;;18.51;91.70;101019.56;5034400;28;20041;-81
2022/06/13 06:42:56;;;;;;;12.60;5.10;;;18.00;99.90;;;18.48;94.42;101014.50;5064010;28;20055;-81
2022/06/13 06:45:25;;;;;;;11.73;4.68;;;18.20;99.90;;;18.62;95.54;101016.09;5068856;28;20494;-81
2022/06/13 06:47:55;;;;;;;15.95;5.55;;;18.30;99.90;;;18.50;96.48;101026.97;5071943;28;20051;-81
2022/06/13 06:50:27;;;;;;;11.48;5.05;;;18.40;99.90;;;18.38;96.11;101025.19;5072638;28;20048;-81
2022/06/13 06:52:54;;;;;;;13.05;5.90;;;18.50;99.90;;;18.23;97.79;101023.59;5066175;28;20123;-81
2022/06/13 07:00:55;;;;;;;20.27;7.00;;;18.80;99.90;;;18.35;98.84;101021.81;5071630;28;20043;-80
2022/06/13 07:03:24;;;;;;;14.63;6.80;;;18.80;99.90;;;18.13;99.81;101029.59;5068947;28;20048;-81
2022/06/13 07:05:52;;;;;;;17.52;7.40;;;18.90;99.90;;;18.31;99.47;101028.00;5072407;28;20074;-80
2022/06/13 07:08:19;;;;;;;20.33;7.70;;;18.90;99.90;;;18.27;97.07;101026.75;5052953;28;20037;-80
2022/06/13 07:10:49;;;;;;;18.80;8.65;;;18.90;99.90;;;18.40;97.83;101037.66;5067712;28;20072;-80
2022/06/13 07:13:19;;;;;;;22.45;9.70;;;19.00;99.90;;;18.35;99.08;101034.72;5068824;28;20048;-81
2022/06/13 07:15:48;;;;;;;22.48;9.27;;;19.00;99.90;;;18.40;98.65;101034.09;5066580;28;20047;-80
2022/06/13 07:18:15;;;;;;;27.00;12.15;;;19.10;99.90;;;18.52;98.26;101026.75;5062448;28;20429;-80
2022/06/13 07:20:44;;;;;;;22.50;13.55;;;19.10;99.90;;;18.27;99.07;101030.34;5072169;28;20040;-81
2022/06/13 07:23:11;;;;;;;25.52;12.40;;;19.20;99.90;;;17.90;100.00;101038.44;5063283;28;20048;-81
2022/06/13 07:25:39;;;;;;;26.52;13.27;;;19.20;99.90;;;17.67;100.00;101046.34;5071548;28;20044;-81
2022/06/13 07:28:06;;;;;;;24.35;12.90;;;19.10;99.90;;;17.71;99.77;101040.19;5069812;28;20111;-81
2022/06/13 07:30:34;;;;;;;26.13;12.05;;;19.00;99.90;;;17.84;99.73;101043.94;5064718;28;20055;-81
2022/06/13 07:33:01;;;;;;;32.80;19.65;;;19.00;99.90;;;18.24;98.20;101051.97;5068577;28;20059;-81
2022/06/13 07:35:29;;;;;;;45.28;26.70;;;19.10;99.90;;;18.12;97.18;101035.31;5052795;28;20091;-81
2022/06/13 07:40:42;;;;;;;34.10;21.17;;;19.10;99.90;;;18.32;100.00;101044.31;5066745;28;20110;-81
2022/06/13 07:43:28;;;;;;;37.40;19.52;;;19.20;99.90;;;18.50;98.40;101056.47;5070057;28;20071;-82
2022/06/13 07:45:57;;;;;;;28.17;18.60;;;19.30;99.90;;;18.73;100.00;101051.19;5071673;28;20075;-81
2022/06/13 07:48:24;;;;;;;34.72;19.77;;;19.40;99.90;;;18.94;98.59;101051.88;5072172;28;20040;-81
2022/06/13 07:50:52;;;;;;;34.72;21.25;;;19.40;99.90;;;19.03;96.82;101047.75;5070190;28;20606;-81
2022/06/13 07:53:20;;;;;;;40.00;24.23;;;19.50;99.90;;;19.42;96.03;101051.16;5069640;28;20036;-81
2022/06/13 07:55:48;;;;;;;38.42;23.63;;;19.60;99.90;;;19.19;91.33;101056.50;5071558;28;20045;-81
2022/06/13 07:58:18;;;;;;;38.13;23.92;;;19.60;99.90;;;18.81;95.47;101057.50;5053043;28;20503;-81
2022/06/13 08:00:49;;;;;;;36.95;24.42;;;19.60;99.90;;;18.64;96.95;101058.06;5063933;28;20048;-81
2022/06/13 08:03:20;;;;;;;36.97;24.02;;;19.60;99.90;;;18.85;95.64;101064.25;5063641;28;20063;-81
2022/06/13 08:05:50;;;;;;;38.95;23.38;;;19.60;99.90;;;18.89;93.99;101065.50;5071431;28;20058;-81
2022/06/13 08:08:18;;;;;;;32.58;21.77;;;19.70;99.90;;;18.89;92.11;101060.00;5070771;28;20044;-81
2022/06/13 08:10:48;;;;;;;32.28;22.67;;;19.60;99.90;;;18.95;94.27;101059.09;5064824;28;20498;-79
2022/06/13 08:13:18;;;;;;;29.90;20.23;;;19.70;99.90;;;18.87;94.31;101059.38;5065417;28;20127;-81
2022/06/13 08:15:45;;;;;;;31.52;21.20;;;19.80;99.90;;;19.00;93.92;101055.63;5064204;28;20124;-81
2022/06/13 08:18:14;;;;;;;30.48;21.08;;;19.80;99.90;;;18.85;93.31;101058.75;5070145;28;20143;-81
2022/06/13 08:20:43;;;;;;;30.92;19.95;;;19.80;99.90;;;18.49;92.67;101065.81;5071523;28;20048;-81
2022/06/13 08:23:13;;;;;;;25.70;16.45;;;19.80;99.90;;;18.25;90.77;101072.97;5069029;28;20094;-81
2022/06/13 08:25:41;;;;;;;28.40;17.05;;;19.70;99.90;;;17.98;90.97;101073.13;5070990;28;20123;-80
2022/06/13 08:28:13;;;;;;;27.63;15.90;;;19.60;99.90;;;17.76;91.51;101072.56;5071397;28;20123;-81
2022/06/13 08:30:44;;;;;;;23.75;14.68;;;19.60;99.90;;;17.61;94.94;101085.75;5071197;28;20059;-83
2022/06/13 08:33:11;;;;;;;21.70;13.70;;;19.60;99.90;;;17.71;94.83;101086.16;5067902;28;20111;-82
2022/06/13 08:35:39;;;;;;;27.27;14.02;;;19.50;99.90;;;17.73;92.71;101084.88;5070848;28;20051;-83
2022/06/13 08:38:06;;;;;;;24.85;16.45;;;19.50;99.90;;;17.85;92.16;101087.81;5071182;28;20064;-83
2022/06/13 08:40:42;;;;;;;25.85;16.25;;;19.50;99.90;;;18.04;94.23;101083.25;5070964;28;20054;-82
2022/06/13 08:43:42;;;;;;;28.20;16.92;;;19.50;99.90;;;18.26;94.81;101081.03;5067607;28;20032;-83
2022/06/13 08:46:17;;;;;;;25.02;15.88;;;19.50;99.90;;;18.26;91.78;101080.16;5068409;28;20035;-83
2022/06/13 08:48:46;;;;;;;34.55;16.67;;;19.60;99.90;;;18.26;92.94;101089.28;5044432;28;20133;-80
2022/06/13 08:51:18;;;;;;;27.17;16.50;;;19.60;99.90;;;18.11;95.27;101089.59;5088714;22;20127;-89
2022/06/13 08:53:53;;;;;;;25.67;15.07;;;19.50;99.90;;;18.03;97.87;101095.34;5057900;28;20083;-86
2022/06/13 08:56:25;;;;;;;29.17;14.73;;;19.60;99.90;;;18.07;96.25;101095.75;5070075;28;20060;-87
2022/06/13 08:58:58;;;;;;;29.50;13.82;;;19.60;99.90;;;18.12;95.18;101095.94;5066619;28;20119;-86
2022/06/13 09:01:33;;;;;;;24.15;13.75;;;19.60;99.90;;;18.11;93.59;101099.75;5070494;28;20442;-87
2022/06/13 09:04:10;;;;;;;24.02;12.70;;;19.60;99.90;;;18.21;95.56;101097.38;5069360;28;20094;-87
2022/06/13 09:06:45;;;;;;;25.65;12.23;;;19.60;99.90;;;18.25;93.68;101100.53;5070185;28;20044;-86
2022/06/13 09:09:19;;;;;;;25.45;11.52;;;19.60;99.90;;;18.40;92.09;101111.25;5052057;28;20378;-86
2022/06/13 09:11:54;;;;;;;21.15;10.00;;;19.60;99.90;;;18.39;89.26;101109.53;5070675;28;20116;-86
2022/06/13 09:14:30;;;;;;;21.25;10.55;;;19.60;99.90;;;18.28;88.62;101108.34;5051653;28;20494;-86
2022/06/13 09:17:06;;;;;;;23.33;9.63;;;19.60;99.90;;;18.39;87.00;101104.03;5070428;28;20046;-86
2022/06/13 09:19:40;;;;;;;19.65;7.75;;;19.60;99.90;;;18.36;81.67;101114.44;5069617;28;20085;-87
2022/06/13 09:22:16;;;;;;;15.80;6.65;;;19.70;97.60;;;18.15;81.90;101114.78;5069972;28;20131;-86
2022/06/13 09:24:53;;;;;;;15.23;6.03;;;19.70;96.50;;;17.95;83.09;101104.72;5069097;28;20044;-86
2022/06/13 09:27:29;;;;;;;19.77;5.78;;;19.60;97.00;;;18.17;83.21;101109.91;5070390;28;20040;-86
2022/06/13 09:30:05;;;;;;;16.83;5.93;;;19.60;97.10;;;18.54;83.41;101107.31;5070135;28;20068;-86
2022/06/13 09:32:38;;;;;;;19.42;6.30;;;19.70;98.30;;;18.75;79.34;101106.97;5069464;28;20036;-86
2022/06/13 09:35:15;;;;;;;17.38;7.95;;;19.70;96.10;;;18.98;83.90;101112.94;5069907;28;20115;-83
2022/06/13 09:37:52;;;;;;;16.88;7.10;;;19.80;99.40;;;18.97;77.57;101108.50;5054384;28;20049;-86
2022/06/13 09:40:22;;;;;;;14.90;5.72;;;19.90;96.30;;;18.87;76.24;101117.31;5068759;28;20093;-87
2022/06/13 09:43:12;;;;;;;14.75;6.05;;;19.90;94.80;;;18.80;76.09;101116.47;5067067;28;20037;-90
2022/06/13 09:46:02;;;;;;;16.90;5.25;;;19.90;94.20;;;18.69;73.89;101116.09;5046583;28;20068;-88
2022/06/13 09:48:46;;;;;;;18.70;5.82;;;19.90;93.10;;;18.60;75.37;101122.13;5062743;28;20090;-87
2022/06/13 09:51:35;;;;;;;13.93;5.10;;;19.90;93.20;;;18.32;76.58;101124.22;5051666;28;20050;-83
2022/06/13 09:54:12;;;;;;;11.27;4.88;;;19.90;93.00;;;18.17;78.23;101119.00;5066111;28;20043;-83
2022/06/13 09:56:47;;;;;;;17.50;5.40;;;19.80;93.80;;;18.00;80.23;101128.84;5062962;28;20041;-83
2022/06/13 09:59:36;;;;;;;12.77;4.80;;;19.80;94.10;;;17.95;78.30;101126.75;5066542;28;20074;-82
2022/06/13 10:02:17;;;;;;;11.38;4.63;;;19.80;93.20;;;18.01;76.80;101114.00;5068688;28;20045;-87
2022/06/13 10:04:54;;;;;;;15.50;4.15;;;19.70;91.70;;;18.00;79.13;101128.84;5068487;28;20087;-91
2022/06/13 10:07:32;;;;;;;15.30;4.40;;;19.70;93.20;;;18.03;81.03;101122.91;5069529;28;20040;-93
2022/06/13 10:10:10;;;;;;;15.77;4.57;;;19.70;94.40;;;18.26;78.32;101125.09;5069192;28;20139;-88
2022/06/13 10:12:51;;;;;;;14.18;4.13;;;19.70;94.30;;;18.39;74.40;101112.31;5068799;28;20095;-87
2022/06/13 10:15:33;;;;;;;15.23;4.10;;;19.70;91.50;;;18.49;74.14;101118.19;5052050;28;20045;-88
2022/06/13 10:18:37;;;;;;;13.70;4.38;;;19.70;91.10;;;18.67;70.63;101121.00;5069789;28;20072;-86
2022/06/13 10:21:17;;;;;;;10.38;3.40;;;19.80;91.10;;;18.65;70.59;101116.78;5071114;28;20084;-86
2022/06/13 10:24:02;;;;;;;13.93;3.33;;;19.80;89.50;;;18.60;73.05;101130.41;5055155;28;20156;-87
2022/06/13 10:26:40;;;;;;;10.98;3.17;;;19.80;90.10;;;18.59;70.08;101132.31;5073475;28;20049;-85
2022/06/13 10:29:32;;;;;;;12.75;3.60;;;19.80;88.60;;;18.56;71.07;101127.22;5055660;28;20080;-87
2022/06/13 10:32:19;;;;;;;12.40;3.90;;;19.80;89.50;;;18.50;70.21;101130.88;5073148;28;20136;-87
2022/06/13 10:35:03;;;;;;;12.32;3.72;;;19.80;88.70;;;18.32;69.43;101132.47;5072656;28;20044;-85
2022/06/13 10:37:41;;;;;;;12.70;3.67;;;19.90;88.50;;;18.32;73.32;101137.16;5055506;28;20055;-86
2022/06/13 10:40:09;;;;;;;14.20;4.60;;;19.90;89.80;;;18.54;69.35;101123.84;5073193;28;20064;-85
2022/06/13 10:42:38;;;;;;;22.52;4.20;;;19.80;89.00;;;18.75;68.03;101120.75;5054615;28;20493;-85
2022/06/13 10:45:10;;;;;;;10.15;3.20;;;19.90;87.60;;;18.93;67.79;101127.44;5072944;28;20508;-86
2022/06/13 10:47:45;;;;;;;10.95;3.30;;;19.90;87.80;;;19.17;72.35;101108.31;5055264;28;20138;-86